Floyd, Virginia
Current Conditions -  °F | °C
As of 6:15 AM on Tuesday 21 Oct 2014 (Local Time) from KBCB Reporting Station
Haze Haze  
Wind Chill: 45°   Ceiling: Unl
Heat Index: 45°   Visibility: 4mi
Dew Point: 45°   Wind: 0mph
Humidity: 100%   Direction: NA
Pressure: 29.95"   Gusts: NA
Location:  36.91°N, 80.32°W
Report Text: KBCB 211015Z AUTO 00000KT 4SM BR SCT028 07/07 A2995 RMK AO2
Loading
Personal Weather Stations






























Interactive Weather Map
Tropical Storm Tracking
New forecast layout! Learn more

10-Day Weather Forecast

Advertisements
Track Severe Weather on mobile